WXM80 ListenWXM80 Stop

You find our weather info also at:

UK Metoffice

WeatherCloud

Weather Underground

Northeastern Weather Network

AWEKAS

Citizen Weather Observer Program (CWOP)

HAMweather, WeatherForYou, PWS Weather


Weather Underground History page Text

Daily Summary for March 21, 2016 Units:  English    Metric   Both
« Previous Day
Next Day »
Daily Weekly Monthly Yearly Custom
  High: Low: Average:
Temperature: 50.8 °F 32.3 °F 39.8 °F
Dew Point: 36.8 °F 20.2 °F 28.8 °F
Humidity: 95 % 30 % 69 %
Wind Speed: 13.6 mph 0.0 mph 4.7 mph
Wind Gust: 24.2 mph - -
Wind:- - WSW
Pressure: 29.99 in 29.72 in -
Precipitation: 0.10 in    
Historical Graphs
 
 
Tabular Data for March 21, 2016
Time Temperature Dew Point Pressure Wind Wind Speed Wind Gust Humidity Rainfall Rate (Hourly)
00:02 35.3 °F 31.5 °F 29.91 in ENE 6.3 mph 9.2 mph 86 % 0.00 in
00:07 35.4 °F 31.9 °F 29.90 in NE 6.2 mph 9.2 mph 87 % 0.00 in
00:12 35.3 °F 32.1 °F 29.90 in NNE 3.5 mph 6.9 mph 88 % 0.00 in
00:17 35.2 °F 32.0 °F 29.90 in North 7.0 mph 10.4 mph 88 % 0.00 in
00:22 34.8 °F 31.9 °F 29.90 in NE 4.3 mph 5.8 mph 89 % 0.00 in
00:27 34.5 °F 31.6 °F 29.90 in NNE 6.6 mph 9.2 mph 89 % 0.00 in
00:32 34.3 °F 31.7 °F 29.89 in NE 7.7 mph 10.4 mph 90 % 0.00 in
00:37 34.1 °F 31.5 °F 29.90 in NE 4.8 mph 5.8 mph 90 % 0.00 in
00:42 33.9 °F 31.6 °F 29.91 in NE 1.8 mph 4.6 mph 91 % 0.01 in
00:48 33.8 °F 31.5 °F 29.90 in ENE 4.2 mph 8.1 mph 91 % 0.01 in
00:53 33.7 °F 31.6 °F 29.89 in NNE 4.8 mph 6.9 mph 92 % 0.01 in
00:58 33.7 °F 31.6 °F 29.89 in NE 5.3 mph 8.1 mph 92 % 0.01 in
01:03 33.6 °F 31.5 °F 29.89 in North 7.9 mph 10.4 mph 92 % 0.01 in
01:08 33.5 °F 31.7 °F 29.90 in NNE 3.4 mph 5.8 mph 93 % 0.02 in
01:13 33.5 °F 31.7 °F 29.90 in NNE 4.7 mph 6.9 mph 93 % 0.02 in
01:18 33.5 °F 31.7 °F 29.90 in North 4.9 mph 6.9 mph 93 % 0.02 in
01:23 33.5 °F 31.7 °F 29.88 in NNE 4.2 mph 7.0 mph 93 % 0.02 in
01:28 33.5 °F 31.7 °F 29.88 in NNE 5.4 mph 6.9 mph 93 % 0.02 in
01:39 33.5 °F 32.0 °F 29.88 in NNE 3.0 mph 4.6 mph 94 % 0.02 in
01:44 33.5 °F 32.0 °F 29.88 in NNE 3.2 mph 5.8 mph 94 % 0.01 in
01:49 33.5 °F 32.0 °F 29.88 in NNW 6.9 mph 9.2 mph 94 % 0.01 in
01:54 33.6 °F 32.1 °F 29.88 in North 6.9 mph 9.2 mph 94 % 0.02 in
02:04 33.6 °F 32.1 °F 29.88 in North 5.8 mph 11.5 mph 94 % 0.02 in
02:09 33.6 °F 32.1 °F 29.89 in North 5.5 mph 8.1 mph 94 % 0.01 in
02:14 33.6 °F 32.1 °F 29.88 in NNW 6.3 mph 7.0 mph 94 % 0.01 in
02:19 33.5 °F 32.0 °F 29.88 in NNE 5.2 mph 8.1 mph 94 % 0.02 in
02:25 33.5 °F 32.0 °F 29.87 in North 4.4 mph 5.8 mph 94 % 0.02 in
02:30 33.5 °F 32.0 °F 29.86 in North 5.7 mph 8.1 mph 94 % 0.02 in
02:35 33.5 °F 32.0 °F 29.87 in NNE 4.2 mph 5.8 mph 94 % 0.02 in
02:40 33.5 °F 32.0 °F 29.87 in North 4.4 mph 9.2 mph 94 % 0.02 in
02:45 33.5 °F 32.0 °F 29.85 in NNE 3.9 mph 5.8 mph 94 % 0.02 in
02:50 33.5 °F 32.2 °F 29.85 in North 6.7 mph 10.0 mph 95 % 0.03 in
02:55 33.5 °F 32.0 °F 29.85 in North 5.7 mph 8.1 mph 94 % 0.02 in
03:00 33.4 °F 31.9 °F 29.84 in NNE 6.2 mph 9.2 mph 94 % 0.02 in
03:05 33.3 °F 32.0 °F 29.85 in North 4.2 mph 5.8 mph 95 % 0.02 in
03:10 33.3 °F 32.0 °F 29.84 in NNE 7.7 mph 11.5 mph 95 % 0.02 in
03:16 33.1 °F 31.8 °F 29.84 in NNW 7.3 mph 11.5 mph 95 % 0.02 in
03:21 33.1 °F 31.8 °F 29.84 in NNE 4.3 mph 9.2 mph 95 % 0.02 in
03:26 33.1 °F 31.8 °F 29.83 in NNE 5.1 mph 9.2 mph 95 % 0.02 in
03:31 33.1 °F 31.8 °F 29.83 in North 7.1 mph 9.2 mph 95 % 0.02 in
03:36 33.0 °F 31.7 °F 29.83 in North 6.1 mph 11.5 mph 95 % 0.02 in
03:41 33.0 °F 31.7 °F 29.83 in NNE 7.1 mph 11.5 mph 95 % 0.02 in
03:46 32.9 °F 31.6 °F 29.83 in North 4.3 mph 8.1 mph 95 % 0.02 in
03:51 32.9 °F 31.6 °F 29.83 in North 5.0 mph 6.9 mph 95 % 0.01 in
03:56 32.9 °F 31.6 °F 29.83 in NNE 5.3 mph 9.2 mph 95 % 0.01 in
04:01 32.8 °F 31.5 °F 29.83 in NNE 4.0 mph 7.0 mph 95 % 0.01 in
04:07 32.8 °F 31.5 °F 29.82 in North 5.6 mph 8.1 mph 95 % 0.01 in
04:12 32.8 °F 31.5 °F 29.83 in North 3.8 mph 6.9 mph 95 % 0.00 in
04:17 32.7 °F 31.4 °F 29.82 in NNW 4.9 mph 8.1 mph 95 % 0.01 in
04:22 32.6 °F 31.3 °F 29.82 in NNE 5.0 mph 6.9 mph 95 % 0.01 in
04:27 32.6 °F 31.3 °F 29.82 in Calm     95 % 0.01 in
04:32 32.6 °F 31.3 °F 29.83 in Calm     95 % 0.01 in
04:37 32.5 °F 31.2 °F 29.82 in Calm     95 % 0.01 in
04:42 32.4 °F 31.1 °F 29.82 in Calm     95 % 0.02 in
04:47 32.4 °F 31.1 °F 29.82 in Calm     95 % 0.02 in
04:52 32.4 °F 31.1 °F 29.82 in Calm     95 % 0.02 in
04:58 32.3 °F 31.0 °F 29.82 in Calm     95 % 0.02 in
05:08 32.4 °F 31.1 °F 29.82 in Calm     95 % 0.03 in
05:13 32.4 °F 31.1 °F 29.81 in Calm     95 % 0.03 in
05:18 32.3 °F 31.0 °F 29.81 in Calm     95 % 0.02 in
05:23 32.3 °F 31.0 °F 29.81 in Calm     95 % 0.02 in
05:28 32.3 °F 31.0 °F 29.81 in Calm     95 % 0.02 in
05:33 32.3 °F 31.0 °F 29.80 in Calm     95 % 0.02 in
05:38 32.3 °F 31.0 °F 29.80 in Calm     95 % 0.02 in
05:43 32.3 °F 31.0 °F 29.80 in Calm     95 % 0.01 in
05:49 32.4 °F 31.1 °F 29.80 in Calm     95 % 0.01 in
05:54 32.3 °F 31.0 °F 29.80 in Calm     95 % 0.01 in
05:59 32.3 °F 31.0 °F 29.80 in Calm     95 % 0.01 in
06:04 32.3 °F 31.0 °F 29.80 in Calm     95 % 0.01 in
06:09 32.3 °F 31.0 °F 29.81 in Calm     95 % 0.00 in
06:14 32.3 °F 31.0 °F 29.81 in Calm     95 % 0.00 in
06:24 32.4 °F 31.1 °F 29.80 in Calm     95 % 0.00 in
06:29 32.4 °F 31.1 °F 29.80 in Calm     95 % 0.00 in
06:34 32.4 °F 31.1 °F 29.80 in Calm     95 % 0.00 in
06:40 32.4 °F 31.1 °F 29.80 in Calm     95 % 0.01 in
06:45 32.4 °F 31.1 °F 29.80 in Calm     95 % 0.01 in
06:50 32.4 °F 31.1 °F 29.80 in Calm     95 % 0.01 in
06:55 32.4 °F 31.1 °F 29.80 in Calm     95 % 0.01 in
07:00 32.4 °F 31.1 °F 29.80 in Calm     95 % 0.01 in
07:05 32.4 °F 31.1 °F 29.80 in Calm     95 % 0.01 in
07:10 32.4 °F 31.1 °F 29.80 in Calm     95 % 0.01 in
07:20 32.5 °F 31.2 °F 29.80 in Calm     95 % 0.01 in
07:31 32.5 °F 31.2 °F 29.80 in Calm     95 % 0.01 in
07:36 32.5 °F 31.2 °F 29.80 in Calm     95 % 0.01 in
07:41 32.6 °F 31.1 °F 29.80 in Calm     94 % 0.00 in
07:46 32.6 °F 31.1 °F 29.80 in Calm     94 % 0.00 in
07:51 32.7 °F 31.2 °F 29.80 in Calm     94 % 0.00 in
07:56 32.8 °F 31.3 °F 29.80 in Calm     94 % 0.00 in
08:01 32.9 °F 31.4 °F 29.80 in Calm     94 % 0.00 in
08:06 32.9 °F 31.6 °F 29.81 in Calm     95 % 0.00 in
08:11 33.0 °F 31.5 °F 29.81 in Calm     94 % 0.00 in
08:16 33.1 °F 31.6 °F 29.81 in Calm     94 % 0.00 in
08:22 33.2 °F 31.7 °F 29.81 in Calm     94 % 0.00 in
08:27 33.3 °F 31.8 °F 29.81 in Calm     94 % 0.00 in
08:32 33.4 °F 31.9 °F 29.81 in Calm     94 % 0.00 in
08:37 33.5 °F 32.0 °F 29.80 in Calm     94 % 0.00 in
08:42 33.6 °F 32.1 °F 29.80 in Calm     94 % 0.00 in
08:47 33.7 °F 32.2 °F 29.80 in Calm     94 % 0.00 in
08:52 33.8 °F 32.3 °F 29.80 in Calm     94 % 0.00 in
08:57 33.9 °F 32.4 °F 29.80 in Calm     94 % 0.00 in
09:02 34.1 °F 32.3 °F 29.80 in Calm     93 % 0.00 in
09:13 34.8 °F 33.0 °F 29.80 in Calm     93 % 0.00 in
09:18 35.2 °F 33.4 °F 29.80 in Calm     93 % 0.00 in
09:23 35.5 °F 33.4 °F 29.80 in NNW 1.2 mph 3.5 mph 92 % 0.00 in
09:28 35.5 °F 33.4 °F 29.80 in WNW 1.7 mph 3.5 mph 92 % 0.00 in
09:33 35.6 °F 33.2 °F 29.80 in North 0.9 mph 4.0 mph 91 % 0.00 in
09:38 35.8 °F 33.4 °F 29.80 in NW 0.8 mph 2.3 mph 91 % 0.00 in
09:43 36.2 °F 33.5 °F 29.80 in WNW 2.4 mph 5.8 mph 90 % 0.00 in
09:48 36.6 °F 33.7 °F 29.80 in WNW 2.2 mph 4.0 mph 89 % 0.00 in
09:53 37.0 °F 34.1 °F 29.80 in WNW 2.4 mph 5.8 mph 89 % 0.00 in
09:58 37.5 °F 34.6 °F 29.80 in North 0.8 mph 5.8 mph 89 % 0.00 in
10:04 37.5 °F 34.3 °F 29.80 in WNW 2.0 mph 6.0 mph 88 % 0.00 in
10:09 37.4 °F 33.9 °F 29.80 in NW 2.7 mph 3.5 mph 87 % 0.00 in
10:14 37.5 °F 34.3 °F 29.80 in NW 1.8 mph 3.5 mph 88 % 0.00 in
10:19 37.9 °F 34.4 °F 29.80 in NW 0.6 mph 2.0 mph 87 % 0.00 in
10:24 38.2 °F 34.4 °F 29.80 in WNW 1.7 mph 3.5 mph 86 % 0.00 in
10:29 38.5 °F 34.4 °F 29.80 in WNW 1.2 mph 3.5 mph 85 % 0.00 in
10:34 38.6 °F 34.2 °F 29.80 in NW 2.5 mph 3.5 mph 84 % 0.00 in
10:39 38.6 °F 34.2 °F 29.80 in WNW 0.5 mph 3.5 mph 84 % 0.00 in
10:44 39.0 °F 34.6 °F 29.80 in NW 1.6 mph 3.5 mph 84 % 0.00 in
10:49 39.5 °F 35.1 °F 29.80 in WSW 2.5 mph 3.5 mph 84 % 0.00 in
10:55 40.0 °F 35.3 °F 29.80 in WNW 0.2 mph 3.5 mph 83 % 0.00 in
11:00 40.4 °F 35.0 °F 29.80 in NW 2.8 mph 4.6 mph 81 % 0.00 in
11:05 40.6 °F 34.9 °F 29.80 in NNW 5.0 mph 6.9 mph 80 % 0.00 in
11:10 40.8 °F 34.8 °F 29.80 in WSW 2.6 mph 6.0 mph 79 % 0.00 in
11:15 41.1 °F 34.4 °F 29.80 in NW 2.6 mph 4.6 mph 77 % 0.00 in
11:20 41.4 °F 34.4 °F 29.80 in WSW 4.2 mph 6.0 mph 76 % 0.00 in
11:30 42.1 °F 34.7 °F 29.80 in West 1.6 mph 3.5 mph 75 % 0.00 in
11:35 42.4 °F 34.7 °F 29.79 in SW 2.7 mph 5.8 mph 74 % 0.00 in
11:40 43.1 °F 35.7 °F 29.79 in West 1.5 mph 5.8 mph 75 % 0.00 in
11:46 43.9 °F 36.8 °F 29.79 in West 4.9 mph 5.0 mph 76 % 0.00 in
11:51 44.1 °F 35.3 °F 29.79 in West 2.0 mph 3.5 mph 71 % 0.00 in
11:56 44.1 °F 33.8 °F 29.79 in SW 4.2 mph 11.5 mph 67 % 0.00 in
12:01 44.0 °F 33.4 °F 29.79 in WSW 5.3 mph 9.0 mph 66 % 0.00 in
12:11 44.2 °F 33.9 °F 29.78 in WSW 2.6 mph 5.8 mph 67 % 0.00 in
12:16 44.5 °F 34.2 °F 29.78 in NW 4.1 mph 9.2 mph 67 % 0.00 in
12:21 45.0 °F 34.3 °F 29.77 in WSW 4.3 mph 11.5 mph 66 % 0.00 in
12:26 45.0 °F 33.5 °F 29.77 in WSW 2.1 mph 5.8 mph 64 % 0.00 in
12:31 45.1 °F 33.6 °F 29.77 in WNW 5.9 mph 11.5 mph 64 % 0.00 in
12:37 45.0 °F 33.9 °F 29.77 in WSW 3.3 mph 9.2 mph 65 % 0.00 in
12:42 45.1 °F 34.0 °F 29.77 in WSW 5.3 mph 9.2 mph 65 % 0.00 in
12:47 45.4 °F 34.3 °F 29.77 in SSW 7.3 mph 11.5 mph 65 % 0.00 in
12:52 45.8 °F 35.8 °F 29.77 in WSW 6.1 mph 9.2 mph 68 % 0.00 in
12:57 46.4 °F 34.9 °F 29.77 in SW 7.4 mph 12.7 mph 64 % 0.00 in
13:02 47.0 °F 35.4 °F 29.76 in WNW 4.9 mph 10.4 mph 64 % 0.00 in
13:07 47.0 °F 33.8 °F 29.76 in SW 4.8 mph 11.5 mph 60 % 0.00 in
13:12 47.0 °F 33.0 °F 29.76 in SW 3.0 mph 11.5 mph 58 % 0.00 in
13:17 47.3 °F 33.7 °F 29.76 in West 2.2 mph 4.6 mph 59 % 0.00 in
13:22 47.7 °F 34.1 °F 29.76 in SW 4.8 mph 6.9 mph 59 % 0.00 in
13:28 48.1 °F 34.9 °F 29.75 in West 4.0 mph 6.9 mph 60 % 0.00 in
13:33 48.7 °F 33.7 °F 29.75 in WSW 5.5 mph 9.2 mph 56 % 0.00 in
13:38 49.1 °F 33.6 °F 29.75 in SSW 5.2 mph 7.0 mph 55 % 0.00 in
13:43 49.1 °F 32.7 °F 29.75 in WSW 7.5 mph 9.2 mph 53 % 0.00 in
13:48 49.1 °F 32.7 °F 29.75 in SW 4.5 mph 8.1 mph 53 % 0.00 in
13:53 49.1 °F 33.6 °F 29.74 in SW 1.8 mph 3.5 mph 55 % 0.00 in
13:58 49.5 °F 32.6 °F 29.74 in SSW 4.1 mph 12.7 mph 52 % 0.00 in
14:03 49.7 °F 32.8 °F 29.74 in WNW 5.8 mph 11.5 mph 52 % 0.00 in
14:08 50.0 °F 33.1 °F 29.74 in SW 6.8 mph 9.2 mph 52 % 0.00 in
14:13 50.1 °F 31.2 °F 29.73 in SW 6.0 mph 11.5 mph 48 % 0.00 in
14:19 50.1 °F 30.1 °F 29.73 in WNW 3.2 mph 9.2 mph 46 % 0.00 in
14:29 50.5 °F 27.0 °F 29.72 in WSW 6.8 mph 10.4 mph 40 % 0.00 in
14:34 50.3 °F 25.6 °F 29.73 in West 10.3 mph 13.8 mph 38 % 0.00 in
14:39 50.3 °F 25.6 °F 29.72 in West 6.1 mph 11.5 mph 38 % 0.00 in
14:44 50.4 °F 22.3 °F 29.72 in West 6.1 mph 9.2 mph 33 % 0.00 in
14:49 50.5 °F 21.7 °F 29.72 in WNW 7.9 mph 16.1 mph 32 % 0.00 in
14:54 50.5 °F 20.2 °F 29.72 in SW 5.8 mph 13.8 mph 30 % 0.00 in
14:59 50.6 °F 22.5 °F 29.73 in SW 7.9 mph 11.5 mph 33 % 0.00 in
15:05 50.6 °F 21.0 °F 29.72 in West 7.5 mph 13.8 mph 31 % 0.00 in
15:10 50.8 °F 22.7 °F 29.73 in West 5.1 mph 13.8 mph 33 % 0.00 in
15:15 50.6 °F 21.8 °F 29.72 in NW 7.6 mph 16.1 mph 32 % 0.00 in
15:20 50.4 °F 20.9 °F 29.73 in WNW 8.0 mph 18.4 mph 31 % 0.00 in
15:25 50.2 °F 20.7 °F 29.73 in WNW 8.3 mph 12.7 mph 31 % 0.00 in
15:30 50.0 °F 20.5 °F 29.73 in West 6.5 mph 12.7 mph 31 % 0.00 in
15:35 50.0 °F 21.3 °F 29.72 in NNW 7.4 mph 12.7 mph 32 % 0.00 in
15:40 50.0 °F 22.0 °F 29.72 in WNW 6.3 mph 11.5 mph 33 % 0.00 in
15:45 50.0 °F 22.0 °F 29.73 in WNW 5.6 mph 11.5 mph 33 % 0.00 in
15:50 49.9 °F 20.4 °F 29.73 in SW 6.3 mph 11.5 mph 31 % 0.00 in
15:56 49.8 °F 20.3 °F 29.73 in WSW 10.3 mph 17.3 mph 31 % 0.00 in
16:01 49.6 °F 23.0 °F 29.73 in WNW 4.5 mph 8.1 mph 35 % 0.00 in
16:06 49.7 °F 23.8 °F 29.72 in West 7.2 mph 10.4 mph 36 % 0.00 in
16:11 49.6 °F 23.0 °F 29.73 in NW 9.0 mph 16.0 mph 35 % 0.00 in
16:16 49.5 °F 22.3 °F 29.73 in NW 8.1 mph 13.8 mph 34 % 0.00 in
16:21 49.4 °F 22.9 °F 29.73 in WNW 8.1 mph 14.0 mph 35 % 0.00 in
16:26 49.3 °F 24.1 °F 29.73 in WNW 8.0 mph 16.1 mph 37 % 0.00 in
16:31 48.8 °F 21.6 °F 29.73 in WNW 8.1 mph 12.7 mph 34 % 0.00 in
16:36 48.6 °F 22.1 °F 29.73 in WNW 9.1 mph 18.0 mph 35 % 0.00 in
16:41 48.6 °F 21.5 °F 29.73 in NW 7.0 mph 18.4 mph 34 % 0.00 in
16:47 48.7 °F 22.2 °F 29.74 in West 6.6 mph 15.0 mph 35 % 0.00 in
16:52 48.7 °F 22.2 °F 29.74 in NW 12.4 mph 15.0 mph 35 % 0.00 in
16:57 48.5 °F 22.1 °F 29.74 in WNW 7.8 mph 12.0 mph 35 % 0.00 in
17:02 48.5 °F 22.7 °F 29.74 in West 10.3 mph 18.0 mph 36 % 0.00 in
17:07 48.2 °F 23.7 °F 29.74 in WSW 4.8 mph 13.8 mph 38 % 0.00 in
17:12 47.9 °F 22.8 °F 29.74 in SW 5.9 mph 15.0 mph 37 % 0.00 in
17:17 47.6 °F 23.2 °F 29.75 in NW 6.9 mph 12.0 mph 38 % 0.00 in
17:22 47.3 °F 23.6 °F 29.75 in NW 9.9 mph 17.3 mph 39 % 0.00 in
17:27 47.2 °F 22.2 °F 29.76 in WNW 9.9 mph 17.3 mph 37 % 0.00 in
17:32 46.9 °F 22.0 °F 29.76 in NW 9.7 mph 17.3 mph 37 % 0.00 in
17:38 46.6 °F 22.3 °F 29.76 in WNW 6.8 mph 12.7 mph 38 % 0.00 in
17:43 46.4 °F 22.1 °F 29.76 in WNW 9.1 mph 19.6 mph 38 % 0.00 in
17:48 46.2 °F 22.0 °F 29.77 in NW 10.0 mph 20.7 mph 38 % 0.00 in
17:53 46.0 °F 20.5 °F 29.77 in WSW 6.7 mph 15.0 mph 36 % 0.00 in
17:58 45.8 °F 21.6 °F 29.77 in West 10.0 mph 17.3 mph 38 % 0.00 in
18:03 45.7 °F 21.5 °F 29.78 in WSW 7.2 mph 11.0 mph 38 % 0.00 in
18:08 45.5 °F 21.3 °F 29.79 in WNW 13.6 mph 20.0 mph 38 % 0.00 in
18:13 45.2 °F 20.4 °F 29.79 in WSW 10.0 mph 19.6 mph 37 % 0.00 in
18:18 44.9 °F 20.2 °F 29.80 in WNW 11.7 mph 24.2 mph 37 % 0.00 in
18:23 44.7 °F 22.4 °F 29.80 in NW 9.5 mph 15.0 mph 41 % 0.00 in
18:29 44.4 °F 21.6 °F 29.81 in NW 11.7 mph 20.7 mph 40 % 0.00 in
18:34 44.2 °F 21.4 °F 29.81 in West 5.5 mph 13.8 mph 40 % 0.00 in
18:44 44.0 °F 24.0 °F 29.81 in NW 7.9 mph 11.5 mph 45 % 0.00 in
18:49 43.7 °F 23.7 °F 29.82 in NNW 8.5 mph 13.8 mph 45 % 0.00 in
18:54 43.6 °F 22.5 °F 29.82 in NW 8.9 mph 17.3 mph 43 % 0.00 in
18:59 43.4 °F 22.9 °F 29.82 in WSW 8.4 mph 12.7 mph 44 % 0.00 in
19:04 43.3 °F 21.7 °F 29.83 in WNW 2.6 mph 6.9 mph 42 % 0.00 in
19:20 43.1 °F 22.6 °F 29.83 in West 6.4 mph 9.2 mph 44 % 0.00 in
19:25 43.1 °F 23.2 °F 29.84 in WNW 7.3 mph 11.5 mph 45 % 0.00 in
19:30 43.0 °F 23.6 °F 29.84 in NW 7.4 mph 11.5 mph 46 % 0.00 in
19:35 42.9 °F 24.0 °F 29.84 in West 4.8 mph 10.4 mph 47 % 0.00 in
19:40 42.8 °F 22.9 °F 29.84 in NW 6.0 mph 11.5 mph 45 % 0.00 in
19:45 42.8 °F 22.4 °F 29.85 in WNW 5.3 mph 10.4 mph 44 % 0.00 in
19:50 42.7 °F 22.3 °F 29.85 in NW 4.6 mph 11.5 mph 44 % 0.00 in
19:55 42.7 °F 23.3 °F 29.85 in WNW 6.8 mph 11.5 mph 46 % 0.00 in
20:00 42.7 °F 22.8 °F 29.86 in West 5.3 mph 16.1 mph 45 % 0.00 in
20:05 42.7 °F 22.3 °F 29.86 in NW 5.9 mph 9.2 mph 44 % 0.00 in
20:11 42.7 °F 23.3 °F 29.86 in WNW 5.0 mph 15.0 mph 46 % 0.00 in
20:16 42.7 °F 23.3 °F 29.87 in NW 6.4 mph 12.7 mph 46 % 0.00 in
20:21 42.6 °F 23.2 °F 29.88 in NNW 4.9 mph 14.0 mph 46 % 0.00 in
20:26 42.5 °F 23.2 °F 29.88 in NNW 5.8 mph 8.1 mph 46 % 0.00 in
20:31 42.4 °F 24.1 °F 29.89 in WNW 10.5 mph 16.1 mph 48 % 0.00 in
20:36 42.4 °F 24.6 °F 29.89 in WNW 9.1 mph 13.0 mph 49 % 0.00 in
20:41 42.3 °F 23.0 °F 29.89 in WSW 9.4 mph 16.1 mph 46 % 0.00 in
20:46 42.2 °F 22.9 °F 29.90 in WNW 8.5 mph 13.8 mph 46 % 0.00 in
20:51 42.1 °F 23.3 °F 29.90 in West 7.8 mph 11.5 mph 47 % 0.00 in
20:56 42.0 °F 24.7 °F 29.90 in WNW 7.2 mph 8.0 mph 50 % 0.00 in
21:02 41.9 °F 24.1 °F 29.91 in WNW 6.7 mph 12.7 mph 49 % 0.00 in
21:07 41.8 °F 24.0 °F 29.91 in WSW 8.6 mph 15.0 mph 49 % 0.00 in
21:12 41.7 °F 24.9 °F 29.91 in NW 7.0 mph 15.0 mph 51 % 0.00 in
21:17 41.6 °F 24.8 °F 29.92 in West 5.8 mph 11.5 mph 51 % 0.00 in
21:22 41.5 °F 26.1 °F 29.92 in NW 5.9 mph 10.4 mph 54 % 0.00 in
21:27 41.5 °F 25.6 °F 29.92 in NW 10.8 mph 18.4 mph 53 % 0.00 in
21:32 41.4 °F 26.0 °F 29.92 in WNW 7.0 mph 19.6 mph 54 % 0.00 in
21:37 41.2 °F 25.8 °F 29.93 in NW 3.1 mph 11.5 mph 54 % 0.00 in
21:42 41.1 °F 26.6 °F 29.93 in WNW 6.9 mph 13.8 mph 56 % 0.00 in
21:47 40.9 °F 26.4 °F 29.93 in NNW 8.4 mph 11.5 mph 56 % 0.00 in
21:53 40.8 °F 26.3 °F 29.94 in WSW 4.9 mph 11.5 mph 56 % 0.00 in
21:58 40.7 °F 25.8 °F 29.94 in NW 8.8 mph 16.1 mph 55 % 0.00 in
22:03 40.6 °F 26.1 °F 29.94 in WNW 6.9 mph 17.3 mph 56 % 0.00 in
22:08 40.4 °F 25.5 °F 29.94 in SSW 10.5 mph 18.4 mph 55 % 0.00 in
22:13 40.4 °F 25.9 °F 29.94 in WNW 5.9 mph 9.2 mph 56 % 0.00 in
22:18 40.2 °F 25.7 °F 29.95 in NW 8.6 mph 17.3 mph 56 % 0.00 in
22:23 40.1 °F 26.1 °F 29.95 in WNW 7.8 mph 16.1 mph 57 % 0.00 in
22:28 40.0 °F 25.1 °F 29.95 in WSW 11.5 mph 19.6 mph 55 % 0.00 in
22:33 39.8 °F 24.9 °F 29.95 in WNW 8.1 mph 15.0 mph 55 % 0.00 in
22:44 39.6 °F 25.2 °F 29.96 in WNW 5.2 mph 11.5 mph 56 % 0.00 in
22:49 39.5 °F 25.9 °F 29.96 in West 6.0 mph 13.8 mph 58 % 0.00 in
22:54 39.3 °F 25.7 °F 29.97 in NW 10.1 mph 17.3 mph 58 % 0.00 in
22:59 39.2 °F 25.6 °F 29.97 in WNW 8.6 mph 15.0 mph 58 % 0.00 in
23:04 39.1 °F 24.7 °F 29.97 in WSW 9.6 mph 15.0 mph 56 % 0.00 in
23:14 39.0 °F 25.0 °F 29.98 in WSW 7.0 mph 17.3 mph 57 % 0.00 in
23:19 38.9 °F 24.9 °F 29.98 in WNW 1.4 mph 9.2 mph 57 % 0.00 in
23:24 38.8 °F 24.9 °F 29.98 in WSW 7.0 mph 9.2 mph 57 % 0.00 in
23:29 38.8 °F 24.9 °F 29.99 in NNW 4.2 mph 16.1 mph 57 % 0.00 in
23:35 38.7 °F 24.8 °F 29.99 in NW 8.3 mph 16.1 mph 57 % 0.00 in
23:40 38.7 °F 24.8 °F 29.99 in NW 4.3 mph 11.5 mph 57 % 0.00 in
23:45 38.6 °F 25.1 °F 29.99 in West 3.2 mph 10.4 mph 58 % 0.00 in
23:50 38.4 °F 24.9 °F 29.99 in WNW 6.1 mph 10.4 mph 58 % 0.00 in
23:55 38.3 °F 24.8 °F 29.99 in West 5.1 mph 12.7 mph 58 % 0.00 in
Crab Meadow Weather
Compliments of Weather Underground - 2.75 mb

Script developed by  Jim McMurry - jmcmurry@mwt.net Adapted for the template by  Wim van der Kuil - Leuven-Template.eu

Weather Terms: Blowing Snow Advisory - Widespread blowing snow with winds 25 to 35 mph, occasionally reducing visibility to 1/4 mile or less.